Time;durP1;ratioP1;P1;durP2;ratioP2;P2;SDS_P1;SDS_P2;PMS_P1;PMS_P2;Temp;Humidity;BMP_temperature;BMP_pressure;BME280_temperature;BME280_humidity;BME280_pressure;Samples;Min_cycle;Max_cycle;Signal;HPM_P1;HPM_P2
2021/12/14 00:00:52;;;;;;;37.57;35.07;;;;;;;10.00;89.35;102455.03;10525894;28;20230;-83
2021/12/14 00:05:54;;;;;;;37.97;35.57;;;;;;;9.56;88.88;102393.72;10525518;28;20229;-83
2021/12/14 00:16:15;;;;;;;39.13;36.63;;;;;;;9.88;88.89;102464.41;10525786;28;20197;-83
2021/12/14 00:21:24;;;;;;;40.07;37.47;;;;;;;9.60;89.22;102446.00;10528005;28;20248;-83
2021/12/14 00:26:27;;;;;;;40.63;37.97;;;;;;;9.91;89.42;102474.97;10524751;28;20230;-83
2021/12/14 00:31:28;;;;;;;40.90;38.20;;;;;;;9.65;89.55;102421.84;10524331;28;20225;-83
2021/12/14 00:36:30;;;;;;;41.00;38.33;;;;;;;10.06;89.12;102496.59;10524870;28;20246;-83
2021/12/14 00:41:36;;;;;;;41.73;38.90;;;;;;;10.06;89.09;102489.47;10522450;28;20610;-83
2021/12/14 00:46:38;;;;;;;41.07;38.23;;;;;;;10.01;88.82;102472.75;10524170;28;20249;-82
2021/12/14 00:51:40;;;;;;;43.87;40.77;;;;;;;9.99;88.88;102490.66;10527878;28;20763;-83
2021/12/14 00:56:46;;;;;;;46.53;43.30;;;;;;;10.02;89.58;102476.28;10524021;28;20209;-82
2021/12/14 01:01:52;;;;;;;43.67;40.83;;;;;;;9.60;89.32;102414.00;10521178;28;20353;-83
2021/12/14 01:06:55;;;;;;;46.33;43.23;;;;;;;9.37;89.33;102358.97;10529316;28;20229;-83
2021/12/14 01:12:04;;;;;;;46.23;43.03;;;;;;;9.91;89.92;102452.75;10524128;28;20206;-83
2021/12/14 01:17:25;;;;;;;44.47;41.37;;;;;;;9.13;89.30;102319.06;10527702;28;20203;-82
2021/12/14 01:22:39;;;;;;;45.80;42.80;;;;;;;9.87;89.57;102437.78;10526555;28;20201;-83
2021/12/14 01:27:49;;;;;;;47.53;44.27;;;;;;;9.89;89.80;102444.81;10525408;28;20641;-82
2021/12/14 01:32:53;;;;;;;47.80;44.67;;;;;;;9.88;89.63;102435.03;10520144;28;20405;-83
2021/12/14 01:38:02;;;;;;;46.43;43.13;;;;;;;9.64;89.72;102402.25;10524018;28;20676;-83
2021/12/14 01:43:05;;;;;;;47.97;44.87;;;;;;;9.53;90.38;102389.41;10521041;28;20233;-83
2021/12/14 01:48:08;;;;;;;45.57;42.57;;;;;;;9.91;90.27;102450.94;10521081;28;20255;-83
2021/12/14 01:53:11;;;;;;;46.77;43.70;;;;;;;9.86;90.33;102430.72;10524106;28;20250;-83
2021/12/14 01:58:14;;;;;;;47.47;44.40;;;;;;;9.90;90.39;102443.84;10532481;28;20201;-83
2021/12/14 02:03:16;;;;;;;45.90;42.70;;;;;;;9.61;90.48;102410.41;10521989;28;20222;-83
2021/12/14 02:08:22;;;;;;;49.37;46.00;;;;;;;9.75;90.09;102440.03;10535712;28;20234;-83
2021/12/14 02:13:27;;;;;;;47.43;43.93;;;;;;;9.61;90.40;102417.56;10529704;28;20212;-82
2021/12/14 02:18:31;;;;;;;46.77;43.57;;;;;;;9.73;90.35;102431.22;10528115;28;20295;-83
2021/12/14 02:23:36;;;;;;;48.23;44.77;;;;;;;9.54;90.59;102395.59;10534471;28;20669;-83
2021/12/14 02:28:38;;;;;;;49.77;46.27;;;;;;;9.39;90.39;102377.59;10530142;28;20225;-83
2021/12/14 02:33:45;;;;;;;48.27;44.93;;;;;;;9.68;91.14;102424.34;10528242;28;20246;-83
2021/12/14 02:38:53;;;;;;;46.63;43.23;;;;;;;9.66;91.54;102412.88;10533722;28;20737;-83
2021/12/14 02:43:57;;;;;;;48.23;44.83;;;;;;;9.71;91.54;102426.91;10530879;28;21177;-83
2021/12/14 02:49:02;;;;;;;48.53;45.23;;;;;;;8.99;91.09;102302.78;10529705;28;20720;-83
2021/12/14 02:54:08;;;;;;;52.83;49.23;;;;;;;9.70;90.80;102426.03;10528949;28;20214;-83
2021/12/14 02:59:12;;;;;;;47.43;43.83;;;;;;;9.44;91.29;102370.25;10528598;28;20618;-83
2021/12/14 03:04:14;;;;;;;46.53;43.23;;;;;;;9.41;91.12;102363.25;10523809;28;20234;-84
2021/12/14 03:09:35;;;;;;;44.10;40.90;;;;;;;9.63;91.21;102399.69;10532904;28;20230;-83
2021/12/14 03:14:39;;;;;;;44.77;41.67;;;;;;;9.61;90.56;102413.09;10529076;28;20228;-83
2021/12/14 03:19:42;;;;;;;46.10;42.87;;;;;;;9.65;91.40;102424.50;10525426;28;20212;-83
2021/12/14 03:24:45;;;;;;;46.13;42.93;;;;;;;9.68;90.93;102417.25;10525580;28;20235;-80
2021/12/14 03:29:46;;;;;;;44.60;41.60;;;;;;;9.54;90.88;102406.28;10522463;28;20309;-79
2021/12/14 03:34:48;;;;;;;42.10;39.37;;;;;;;9.31;90.44;102357.44;10523413;28;20222;-79
2021/12/14 03:39:58;;;;;;;42.80;40.00;;;;;;;9.69;90.74;102418.97;10522505;28;20298;-79
2021/12/14 03:45:00;;;;;;;42.13;39.33;;;;;;;9.65;90.05;102441.38;10522373;28;20703;-80
2021/12/14 03:50:08;;;;;;;42.70;40.00;;;;;;;9.66;90.40;102448.44;10523625;28;22037;-79
2021/12/14 03:55:15;;;;;;;39.43;36.93;;;;;;;9.58;90.01;102428.34;10519977;28;20214;-80
2021/12/14 04:00:19;;;;;;;38.57;36.07;;;;;;;9.69;89.88;102447.44;10520124;28;20221;-79
2021/12/14 04:05:22;;;;;;;38.57;36.17;;;;;;;9.70;90.25;102438.50;10521163;28;20411;-79
2021/12/14 04:10:29;;;;;;;37.23;34.80;;;;;;;9.67;89.35;102430.63;10521504;28;20206;-79
2021/12/14 04:15:31;;;;;;;36.77;34.40;;;;;;;9.66;89.63;102432.44;10519957;28;20260;-79
2021/12/14 04:20:40;;;;;;;37.37;35.07;;;;;;;9.64;89.75;102434.28;10520830;28;20242;-79
2021/12/14 04:25:45;;;;;;;36.83;34.43;;;;;;;9.65;89.52;102440.50;10519496;28;20238;-79
2021/12/14 04:30:47;;;;;;;37.67;35.17;;;;;;;9.66;89.43;102442.22;10519722;28;20279;-79
2021/12/14 04:35:50;;;;;;;36.40;34.10;;;;;;;9.67;89.33;102425.31;10519929;28;20283;-79
2021/12/14 04:51:58;;;;;;;36.53;34.20;;;;;;;9.57;88.86;102413.25;10519860;28;20237;-79
2021/12/14 04:57:01;;;;;;;36.43;34.13;;;;;;;9.58;89.63;102412.34;10523382;28;20258;-79
2021/12/14 05:02:11;;;;;;;36.50;34.00;;;;;;;9.50;89.09;102421.53;10523859;28;20221;-79
2021/12/14 05:07:33;;;;;;;36.87;34.33;;;;;;;9.50;89.25;102418.00;10524840;28;20217;-79
2021/12/14 05:12:39;;;;;;;36.27;33.80;;;;;;;9.52;89.23;102403.66;10523296;28;21674;-79
2021/12/14 05:17:42;;;;;;;37.37;34.87;;;;;;;9.50;89.22;102404.66;10526006;28;20311;-79
2021/12/14 05:22:47;;;;;;;37.23;34.83;;;;;;;9.51;89.18;102412.59;10521753;28;20267;-79
2021/12/14 05:27:53;;;;;;;36.90;34.60;;;;;;;9.44;89.19;102397.78;10523260;28;20217;-79
2021/12/14 05:32:59;;;;;;;35.43;33.17;;;;;;;9.50;88.63;102416.19;10519978;28;20225;-80
2021/12/14 05:38:05;;;;;;;35.17;32.87;;;;;;;9.06;88.55;102344.25;10524752;28;20206;-79
2021/12/14 05:43:11;;;;;;;35.23;33.03;;;;;;;9.20;89.47;102374.81;10532521;28;20229;-79
2021/12/14 05:48:18;;;;;;;35.67;33.47;;;;;;;9.44;89.43;102418.25;10528229;28;20307;-80
2021/12/14 05:53:23;;;;;;;37.37;34.87;;;;;;;9.48;89.51;102423.41;10526588;28;20210;-79
2021/12/14 05:58:27;;;;;;;36.27;33.77;;;;;;;9.53;89.77;102431.19;10528162;28;20240;-80
2021/12/14 06:03:31;;;;;;;34.97;32.60;;;;;;;9.57;88.92;102438.16;10529718;27;20222;-80
2021/12/14 06:08:35;;;;;;;36.33;33.83;;;;;;;9.49;89.35;102430.47;10529508;28;20217;-80
2021/12/14 06:13:41;;;;;;;35.70;33.17;;;;;;;9.50;88.48;102445.53;10530257;28;20658;-79
2021/12/14 06:18:43;;;;;;;37.20;34.77;;;;;;;9.45;89.25;102449.31;10532728;28;20221;-79
2021/12/14 06:23:45;;;;;;;37.53;35.03;;;;;;;9.29;89.31;102425.94;10527029;28;20203;-79
2021/12/14 06:28:48;;;;;;;37.27;34.87;;;;;;;9.39;88.92;102430.91;10527661;28;20229;-79
2021/12/14 06:33:52;;;;;;;38.07;35.33;;;;;;;9.51;88.94;102449.06;10522954;28;20222;-79
2021/12/14 06:39:05;;;;;;;42.17;39.37;;;;;;;9.37;88.58;102438.97;10526698;28;20635;-79
2021/12/14 06:44:08;;;;;;;40.77;37.87;;;;;;;9.45;88.94;102460.00;10521811;28;20237;-79
2021/12/14 06:49:13;;;;;;;37.93;35.20;;;;;;;9.49;89.50;102461.59;10520066;28;20226;-80
2021/12/14 06:54:17;;;;;;;40.13;37.33;;;;;;;9.52;89.70;102462.34;10518363;28;20298;-80
2021/12/14 06:59:21;;;;;;;39.27;36.57;;;;;;;9.49;89.30;102464.25;10517967;28;20654;-80
2021/12/14 07:04:25;;;;;;;38.83;36.03;;;;;;;9.54;88.88;102486.28;10522722;28;20320;-79
2021/12/14 07:09:31;;;;;;;40.77;37.87;;;;;;;9.52;89.10;102483.69;10523650;28;20360;-79
2021/12/14 07:14:57;;;;;;;42.63;39.73;;;;;;;9.51;89.13;102481.06;10524416;28;20238;-79
2021/12/14 07:20:02;;;;;;;385.90;368.87;;;;;;;9.68;89.05;102462.59;10523506;28;20454;-80
2021/12/14 07:25:06;;;;;;;51.97;48.43;;;;;;;9.64;89.35;102471.63;10521865;28;20233;-80
2021/12/14 07:30:17;;;;;;;41.60;38.67;;;;;;;9.61;88.95;102481.59;10519952;28;20214;-80
2021/12/14 07:35:29;;;;;;;42.50;39.13;;;;;;;9.54;89.56;102472.94;10520802;28;20207;-80
2021/12/14 07:40:39;;;;;;;40.60;37.60;;;;;;;9.64;89.12;102494.78;10516783;28;20254;-80
2021/12/14 07:45:43;;;;;;;43.77;40.57;;;;;;;9.61;89.23;102506.47;10520368;28;20317;-80
2021/12/14 07:50:49;;;;;;;43.33;39.87;;;;;;;9.61;88.91;102505.59;10521382;28;20271;-80
2021/12/14 07:55:51;;;;;;;43.20;40.00;;;;;;;9.63;89.54;102509.06;10515412;28;20207;-80
2021/12/14 08:00:54;;;;;;;42.97;39.67;;;;;;;9.54;89.62;102492.50;10521401;28;20222;-79
2021/12/14 08:05:56;;;;;;;43.07;39.93;;;;;;;9.64;90.53;102518.78;10525085;28;20629;-79
2021/12/14 08:11:27;;;;;;;45.10;41.80;;;;;;;9.55;89.83;102512.91;10523424;28;20202;-79
2021/12/14 08:16:41;;;;;;;44.17;40.63;;;;;;;9.63;89.87;102528.59;10526464;28;20202;-79
2021/12/14 08:21:45;;;;;;;43.97;40.40;;;;;;;9.25;90.40;102474.09;10528765;28;20721;-80
2021/12/14 08:26:52;;;;;;;45.33;41.73;;;;;;;9.61;90.55;102538.47;10519438;28;20256;-80
2021/12/14 08:31:58;;;;;;;45.40;41.90;;;;;;;9.65;90.99;102534.75;10510955;28;20753;-80
2021/12/14 08:37:02;;;;;;;44.90;41.23;;;;;;;9.43;91.48;102512.53;10525116;28;20218;-80
2021/12/14 08:42:13;;;;;;;44.37;40.97;;;;;;;9.69;91.39;102557.69;10517594;28;21553;-79
2021/12/14 08:47:24;;;;;;;46.10;42.43;;;;;;;9.60;91.47;102535.84;10520700;28;20225;-80
2021/12/14 08:52:26;;;;;;;47.87;43.93;;;;;;;9.37;91.73;102502.97;10517992;28;20288;-79
2021/12/14 08:57:31;;;;;;;48.13;44.37;;;;;;;9.53;91.86;102524.56;10515976;28;20236;-80
2021/12/14 09:02:35;;;;;;;44.97;41.27;;;;;;;9.18;91.95;102446.84;10520002;28;20717;-80
2021/12/14 09:07:36;;;;;;;45.17;41.53;;;;;;;9.83;92.26;102559.81;10518882;28;20692;-79
2021/12/14 09:12:40;;;;;;;45.43;41.53;;;;;;;9.89;92.47;102550.69;10518539;28;20631;-80
2021/12/14 09:17:43;;;;;;;48.53;44.27;;;;;;;9.88;92.26;102554.28;10531916;28;20202;-80
2021/12/14 09:22:54;;;;;;;48.07;43.87;;;;;;;9.80;92.69;102532.41;10514853;28;20835;-80
2021/12/14 09:27:57;;;;;;;45.40;41.70;;;;;;;9.67;92.27;102510.69;10528429;28;20229;-80
2021/12/14 09:33:00;;;;;;;44.70;41.07;;;;;;;9.55;92.75;102499.56;10519955;27;20222;-79
2021/12/14 09:38:05;;;;;;;45.07;41.53;;;;;;;9.88;92.43;102560.47;10525477;28;20657;-80
2021/12/14 09:43:08;;;;;;;45.73;42.13;;;;;;;9.54;92.09;102505.81;10524028;28;20234;-80
2021/12/14 09:48:13;;;;;;;47.30;43.63;;;;;;;9.45;92.14;102482.19;10534196;28;20267;-80
2021/12/14 09:53:19;;;;;;;59.60;54.40;;;;;;;9.91;92.92;102565.72;10524940;28;20250;-81
2021/12/14 09:58:31;;;;;;;49.93;45.80;;;;;;;9.96;92.57;102561.97;10527203;28;20551;-79
2021/12/14 10:03:36;;;;;;;46.03;42.23;;;;;;;9.99;92.79;102562.72;10529066;28;20240;-80
2021/12/14 10:08:41;;;;;;;46.27;42.47;;;;;;;9.96;92.94;102543.28;10525003;28;20257;-80
2021/12/14 10:13:46;;;;;;;46.47;42.57;;;;;;;9.66;92.82;102492.91;10531803;28;20293;-80
2021/12/14 10:18:54;;;;;;;46.10;42.17;;;;;;;10.06;92.66;102548.19;10522679;28;20252;-81
2021/12/14 10:23:57;;;;;;;46.17;42.40;;;;;;;10.01;92.83;102535.97;10520659;28;20209;-80
2021/12/14 10:29:00;;;;;;;44.43;40.67;;;;;;;10.16;92.84;102559.34;10525666;28;20249;-80
2021/12/14 10:34:08;;;;;;;43.70;40.23;;;;;;;10.08;92.65;102545.47;10527087;28;20280;-80
2021/12/14 10:39:25;;;;;;;44.13;40.60;;;;;;;10.05;92.69;102532.22;10523495;28;20212;-79
2021/12/14 10:44:31;;;;;;;45.57;41.63;;;;;;;9.93;93.05;102510.47;10525803;28;20233;-80
2021/12/14 10:49:34;;;;;;;45.83;42.17;;;;;;;10.30;93.04;102567.69;10524996;28;20226;-79
2021/12/14 10:54:36;;;;;;;46.37;42.47;;;;;;;10.04;93.06;102518.03;10523975;28;20215;-79
2021/12/14 10:59:43;;;;;;;47.97;44.17;;;;;;;10.33;93.14;102548.84;10526685;28;20574;-80
2021/12/14 11:04:54;;;;;;;50.87;46.30;;;;;;;10.35;93.21;102556.78;10525073;28;20241;-80
2021/12/14 11:10:08;;;;;;;49.37;45.33;;;;;;;10.09;93.75;102488.44;10527675;28;20678;-80
2021/12/14 11:15:13;;;;;;;48.77;44.73;;;;;;;10.45;93.63;102543.91;10520901;28;20227;-80
2021/12/14 11:20:21;;;;;;;48.90;45.13;;;;;;;10.49;93.78;102553.53;10523686;28;20684;-80
2021/12/14 11:25:27;;;;;;;47.67;43.40;;;;;;;10.51;94.11;102565.91;10532894;28;20210;-81
2021/12/14 11:30:33;;;;;;;49.37;45.33;;;;;;;10.51;93.63;102559.69;10522281;28;20307;-79
2021/12/14 11:35:40;;;;;;;47.50;43.60;;;;;;;10.53;94.39;102549.81;10522563;28;20212;-81
2021/12/14 11:40:42;;;;;;;46.50;42.10;;;;;;;10.50;94.46;102545.44;10528259;28;20259;-80
2021/12/14 11:45:46;;;;;;;46.33;42.43;;;;;;;10.52;94.14;102546.25;10525407;28;20218;-80
2021/12/14 11:50:50;;;;;;;45.27;41.97;;;;;;;10.40;94.27;102525.41;10522641;28;20214;-81
2021/12/14 11:55:54;;;;;;;43.77;40.13;;;;;;;10.54;94.68;102543.50;10524280;28;20202;-80
2021/12/14 12:01:04;;;;;;;42.67;39.10;;;;;;;10.56;94.86;102549.66;10518712;28;20218;-81
2021/12/14 12:06:14;;;;;;;42.80;39.27;;;;;;;10.41;94.79;102515.59;10522037;28;20240;-80
2021/12/14 12:11:17;;;;;;;42.63;39.23;;;;;;;10.62;94.72;102544.03;10522893;28;20209;-81
2021/12/14 12:16:22;;;;;;;42.47;39.03;;;;;;;10.60;95.00;102547.72;10521600;28;21020;-80
2021/12/14 12:21:29;;;;;;;43.57;39.87;;;;;;;9.02;95.21;102278.66;10513986;28;20324;-81
2021/12/14 12:26:31;;;;;;;42.13;38.53;;;;;;;10.30;95.85;102478.63;10520987;28;20650;-81
2021/12/14 12:31:45;;;;;;;39.87;36.67;;;;;;;10.56;95.55;102509.56;10546748;28;20214;-81
2021/12/14 12:36:49;;;;;;;42.50;38.80;;;;;;;10.82;95.70;102534.28;10534852;28;20229;-81
2021/12/14 12:41:56;;;;;;;43.07;39.57;;;;;;;10.73;96.24;102511.47;10537768;28;20612;-81
2021/12/14 12:47:01;;;;;;;42.73;39.23;;;;;;;10.88;95.66;102523.28;10537472;28;20229;-81
2021/12/14 12:52:09;;;;;;;43.67;40.03;;;;;;;10.64;95.89;102507.44;10526344;28;20209;-81
2021/12/14 12:57:21;;;;;;;42.33;39.00;;;;;;;10.84;95.92;102509.19;10525572;28;20206;-81
2021/12/14 13:02:27;;;;;;;42.27;38.90;;;;;;;10.27;96.22;102407.53;10521697;28;20225;-81
2021/12/14 13:07:37;;;;;;;43.43;39.60;;;;;;;10.91;96.21;102497.28;10531988;28;20700;-81
2021/12/14 13:12:49;;;;;;;43.97;40.10;;;;;;;10.95;96.30;102492.66;10519333;28;20205;-81
2021/12/14 13:17:51;;;;;;;46.47;42.43;;;;;;;10.98;96.33;102503.22;10522904;28;20217;-81
2021/12/14 13:22:54;;;;;;;43.63;39.90;;;;;;;10.90;95.95;102490.19;10520340;28;20214;-81
2021/12/14 13:27:56;;;;;;;43.40;39.33;;;;;;;10.96;95.74;102483.69;10525744;28;20249;-81
2021/12/14 13:32:58;;;;;;;43.20;39.13;;;;;;;11.09;95.81;102503.59;10521830;28;20218;-81
2021/12/14 13:38:04;;;;;;;39.80;36.23;;;;;;;10.60;95.99;102417.63;10521176;28;20214;-81
2021/12/14 13:43:38;;;;;;;39.80;35.93;;;;;;;11.01;96.01;102475.47;10528367;28;20877;-81
2021/12/14 13:48:42;;;;;;;35.80;33.17;;;;;;;11.19;96.67;102496.00;10522852;28;20233;-80
2021/12/14 13:53:47;;;;;;;38.58;34.95;;;;;;;10.91;96.63;102441.13;10522651;28;20743;-81
2021/12/14 13:58:51;;;;;;;35.80;32.23;;;;;;;11.01;95.81;102446.06;10528533;28;20689;-81
2021/12/14 14:04:01;;;;;;;35.17;32.17;;;;;;;11.19;95.87;102466.56;10530798;28;20315;-80
2021/12/14 14:09:08;;;;;;;34.20;31.13;;;;;;;11.02;96.24;102413.91;10525653;28;20226;-80
2021/12/14 14:14:21;;;;;;;34.03;31.40;;;;;;;10.09;96.20;102259.72;10535860;28;20214;-81
2021/12/14 14:19:26;;;;;;;33.22;30.58;;;;;;;11.43;96.13;102479.69;10530707;28;20218;-80
2021/12/14 14:24:32;;;;;;;32.13;29.60;;;;;;;11.15;96.29;102429.34;10531178;28;20214;-81
2021/12/14 14:29:42;;;;;;;36.85;34.42;;;;;;;11.48;96.19;102491.91;10530125;28;20237;-80
2021/12/14 14:34:54;;;;;;;29.48;27.30;;;;;;;11.32;96.60;102455.28;10528667;28;20241;-80
2021/12/14 14:40:04;;;;;;;29.50;27.05;;;;;;;11.57;96.37;102497.78;10528606;28;20414;-80
2021/12/14 14:45:13;;;;;;;30.33;27.73;;;;;;;11.26;95.62;102457.31;10526996;28;20237;-80
2021/12/14 14:50:24;;;;;;;29.88;27.20;;;;;;;11.49;96.03;102499.00;10524563;28;20232;-81
2021/12/14 14:55:33;;;;;;;29.25;27.00;;;;;;;11.64;95.67;102529.50;10527249;28;20213;-80
2021/12/14 15:00:46;;;;;;;28.10;25.75;;;;;;;11.69;96.29;102534.63;10515628;28;20221;-80
2021/12/14 15:05:55;;;;;;;28.05;25.90;;;;;;;11.27;96.04;102451.00;10517584;28;20210;-80
2021/12/14 15:11:02;;;;;;;28.15;25.83;;;;;;;11.71;95.48;102543.44;10519846;28;20320;-80
2021/12/14 15:16:19;;;;;;;28.13;25.75;;;;;;;11.67;95.00;102534.69;10522467;28;20221;-80
2021/12/14 15:21:32;;;;;;;29.92;27.75;;;;;;;11.66;96.11;102541.00;10524531;28;20228;-80
2021/12/14 15:26:36;;;;;;;28.98;26.58;;;;;;;11.67;95.58;102534.69;10522429;28;20257;-79
2021/12/14 15:31:37;;;;;;;28.75;26.30;;;;;;;11.52;96.03;102511.34;10517747;28;20228;-80
2021/12/14 15:36:39;;;;;;;30.10;27.77;;;;;;;11.57;96.28;102529.88;10515826;28;20212;-79
2021/12/14 15:41:43;;;;;;;28.42;26.25;;;;;;;11.22;95.93;102457.53;10518359;28;20596;-79
2021/12/14 15:46:47;;;;;;;28.48;26.38;;;;;;;11.72;96.16;102539.84;10516597;28;20235;-79
2021/12/14 15:51:54;;;;;;;28.10;25.88;;;;;;;11.66;95.98;102526.75;10517277;28;20225;-79
2021/12/14 15:57:02;;;;;;;28.70;26.50;;;;;;;11.68;95.80;102536.44;10515270;28;20669;-80
2021/12/14 16:02:06;;;;;;;30.80;28.23;;;;;;;11.56;95.54;102512.06;10517004;28;20237;-80
2021/12/14 16:07:12;;;;;;;30.95;28.90;;;;;;;11.68;95.34;102552.50;10513272;28;20229;-80
2021/12/14 16:17:42;;;;;;;30.42;28.25;;;;;;;11.68;96.10;102557.00;10513677;28;20302;-80
2021/12/14 16:22:43;;;;;;;31.33;28.42;;;;;;;11.65;95.47;102571.38;10516830;28;20214;-80
2021/12/14 16:27:51;;;;;;;30.10;27.58;;;;;;;11.67;95.61;102566.81;10516789;28;20227;-80
2021/12/14 16:33:11;;;;;;;31.38;28.95;;;;;;;11.59;95.70;102555.63;10511141;28;20226;-80
2021/12/14 16:38:15;;;;;;;31.30;28.43;;;;;;;11.56;95.52;102544.19;10512068;28;20210;-79
2021/12/14 16:43:23;;;;;;;33.28;30.25;;;;;;;11.40;95.32;102520.00;10516136;28;20255;-80
2021/12/14 16:49:51;;;;;;;34.25;31.38;;;;;;;11.48;95.93;102550.78;10562992;27;20298;-80
2021/12/14 16:54:55;;;;;;;33.30;30.20;;;;;;;11.58;95.76;102569.94;10522865;28;20206;-80
2021/12/14 17:00:01;;;;;;;32.20;29.77;;;;;;;11.58;95.05;102585.97;10528885;28;20589;-80
2021/12/14 17:05:07;;;;;;;34.77;31.70;;;;;;;11.39;95.38;102564.59;10406391;27;20227;-80
2021/12/14 17:10:15;;;;;;;41.07;37.50;;;;;;;11.48;95.96;102579.34;10406225;28;20385;-80
2021/12/14 17:15:25;;;;;;;35.30;31.73;;;;;;;11.53;95.36;102598.75;10405636;28;20657;-80
2021/12/14 17:20:29;;;;;;;36.57;33.33;;;;;;;11.41;96.08;102583.25;10404707;28;20220;-80
2021/12/14 17:25:30;;;;;;;39.23;35.53;;;;;;;11.52;95.81;102596.13;10404219;28;20829;-80
2021/12/14 17:30:32;;;;;;;38.47;34.93;;;;;;;11.46;96.51;102595.47;10404347;28;20332;-80
2021/12/14 17:35:37;;;;;;;39.40;35.50;;;;;;;11.48;95.95;102601.63;10407696;28;20281;-80
2021/12/14 17:40:42;;;;;;;40.53;36.13;;;;;;;11.51;96.52;102600.63;10404694;28;20703;-80
2021/12/14 17:45:46;;;;;;;40.55;36.92;;;;;;;11.36;95.72;102571.88;10399752;28;20266;-80
2021/12/14 17:50:51;;;;;;;39.42;35.97;;;;;;;11.54;96.08;102597.78;10406964;28;20285;-80
2021/12/14 17:55:56;;;;;;;41.63;38.05;;;;;;;11.55;96.99;102601.34;10399298;28;20216;-80
2021/12/14 18:01:01;;;;;;;44.55;40.67;;;;;;;11.54;95.96;102599.59;10377197;28;20677;-80
2021/12/14 18:06:07;;;;;;;40.70;37.03;;;;;;;11.41;96.73;102592.13;10378787;28;20234;-80
2021/12/14 18:11:14;;;;;;;40.17;36.47;;;;;;;11.53;96.56;102612.13;10376596;28;21146;-80
2021/12/14 18:16:21;;;;;;;39.63;36.20;;;;;;;11.56;96.67;102605.75;10377903;28;20219;-80
2021/12/14 18:21:25;;;;;;;39.93;36.57;;;;;;;11.58;96.85;102602.03;10382652;28;20208;-79
2021/12/14 18:26:36;;;;;;;39.03;35.85;;;;;;;11.59;97.12;102609.16;10377801;28;20228;-80
2021/12/14 18:31:39;;;;;;;40.77;37.30;;;;;;;11.62;96.23;102613.47;10379089;28;20653;-80
2021/12/14 18:36:47;;;;;;;42.08;38.60;;;;;;;11.62;96.40;102622.41;10379891;28;20211;-79
2021/12/14 18:41:51;;;;;;;41.83;37.67;;;;;;;11.63;96.73;102623.25;10372168;28;20204;-80
2021/12/14 18:47:15;;;;;;;40.67;37.43;;;;;;;11.62;96.56;102625.06;10373837;28;20240;-80
2021/12/14 18:52:21;;;;;;;42.30;38.63;;;;;;;11.59;96.71;102625.19;10376145;28;20718;-79
2021/12/14 18:57:23;;;;;;;40.15;37.08;;;;;;;11.45;95.47;102608.91;10371837;28;20621;-80
2021/12/14 19:02:30;;;;;;;42.58;38.88;;;;;;;11.32;96.50;102595.28;10375160;28;20757;-80
2021/12/14 19:07:39;;;;;;;43.53;40.17;;;;;;;11.51;96.56;102643.44;10376897;28;20229;-79
2021/12/14 19:12:41;;;;;;;43.20;39.43;;;;;;;11.49;95.72;102642.66;10369974;28;20213;-80
2021/12/14 19:17:45;;;;;;;48.03;44.23;;;;;;;11.50;96.98;102649.72;10374131;28;20212;-80
2021/12/14 19:22:52;;;;;;;43.93;40.27;;;;;;;11.48;96.83;102652.47;10378184;28;20540;-80
2021/12/14 19:27:59;;;;;;;43.20;39.83;;;;;;;11.46;96.48;102654.34;10374397;28;20224;-79
2021/12/14 19:33:00;;;;;;;49.42;45.22;;;;;;;11.44;96.30;102655.38;10369964;28;20343;-80
2021/12/14 19:38:08;;;;;;;45.45;41.50;;;;;;;11.44;96.40;102658.91;10376136;28;20223;-80
2021/12/14 19:43:13;;;;;;;43.47;39.67;;;;;;;11.45;96.92;102662.44;10374492;28;20248;-80
2021/12/14 19:48:19;;;;;;;44.30;40.67;;;;;;;11.45;97.07;102670.47;10369819;28;20243;-80
2021/12/14 19:53:25;;;;;;;46.63;42.38;;;;;;;11.34;96.63;102637.97;10375143;28;20254;-79
2021/12/14 19:58:30;;;;;;;45.70;41.80;;;;;;;11.46;96.86;102657.00;10371867;28;20212;-80
2021/12/14 20:03:40;;;;;;;59.30;54.55;;;;;;;11.43;97.56;102654.50;10369520;28;20660;-80
2021/12/14 20:08:46;;;;;;;47.05;42.75;;;;;;;11.26;96.88;102638.31;10367430;28;20228;-80
2021/12/14 20:13:53;;;;;;;48.63;44.00;;;;;;;11.38;97.32;102671.69;10372911;28;20673;-81
2021/12/14 20:18:55;;;;;;;46.00;41.95;;;;;;;11.38;97.34;102667.22;10372369;28;20803;-80
2021/12/14 20:24:00;;;;;;;46.03;41.80;;;;;;;11.36;97.65;102657.50;10372503;28;20224;-79
2021/12/14 20:29:06;;;;;;;47.07;42.63;;;;;;;11.38;97.07;102661.84;10371910;28;20228;-80
2021/12/14 20:34:10;;;;;;;46.67;42.50;;;;;;;11.39;98.15;102657.38;10369775;28;20318;-80
2021/12/14 20:39:16;;;;;;;50.53;45.93;;;;;;;11.43;97.31;102673.22;10375208;28;20228;-80
2021/12/14 20:44:26;;;;;;;50.72;46.22;;;;;;;11.41;97.19;102661.69;10371237;28;20628;-80
2021/12/14 20:49:31;;;;;;;50.57;45.77;;;;;;;11.39;97.93;102662.72;10371733;28;20727;-79
2021/12/14 20:54:35;;;;;;;51.97;47.05;;;;;;;11.24;98.17;102637.53;10371057;28;20258;-79
2021/12/14 20:59:41;;;;;;;49.77;45.23;;;;;;;11.00;97.64;102596.72;10374379;28;20231;-80
2021/12/14 21:04:43;;;;;;;52.35;47.40;;;;;;;11.22;97.75;102637.59;10371979;28;20232;-80
2021/12/14 21:09:49;;;;;;;51.03;46.53;;;;;;;11.45;98.13;102674.03;10374561;28;20239;-81
2021/12/14 21:14:56;;;;;;;53.37;48.30;;;;;;;11.41;97.69;102669.72;10375729;28;20209;-80
2021/12/14 21:20:00;;;;;;;49.40;44.90;;;;;;;11.38;98.01;102669.88;10376375;28;20217;-80
2021/12/14 21:25:07;;;;;;;50.60;46.05;;;;;;;10.49;97.41;102521.47;10375946;28;20688;-80
2021/12/14 21:30:13;;;;;;;48.70;44.23;;;;;;;10.97;97.68;102595.06;10372116;28;20668;-79
2021/12/14 21:35:22;;;;;;;50.60;45.80;;;;;;;11.40;97.44;102669.81;10378527;28;20219;-80
2021/12/14 21:40:47;;;;;;;48.67;44.30;;;;;;;11.35;98.28;102669.16;10384888;28;20648;-80
2021/12/14 21:45:56;;;;;;;48.30;43.90;;;;;;;11.30;97.21;102672.03;10380258;28;20250;-80
2021/12/14 21:50:58;;;;;;;52.07;47.03;;;;;;;11.32;97.46;102671.97;10379453;28;20204;-80
2021/12/14 21:56:02;;;;;;;52.40;47.38;;;;;;;11.30;98.04;102669.34;10375090;28;20232;-80
2021/12/14 22:01:06;;;;;;;51.33;46.53;;;;;;;10.86;97.45;102600.88;10382929;28;20696;-83
2021/12/14 22:06:08;;;;;;;56.07;50.57;;;;;;;11.33;97.65;102671.03;10379658;28;20266;-84
2021/12/14 22:11:13;;;;;;;54.60;49.15;;;;;;;11.27;98.10;102659.66;10389114;28;20330;-84
2021/12/14 22:16:23;;;;;;;52.42;47.45;;;;;;;11.32;97.91;102677.31;10375792;28;20511;-82
2021/12/14 22:21:25;;;;;;;54.93;49.67;;;;;;;11.15;97.87;102651.31;10381432;28;20220;-83
2021/12/14 22:26:29;;;;;;;52.83;47.60;;;;;;;11.34;97.67;102680.78;10389752;28;20232;-83
2021/12/14 22:31:31;;;;;;;53.43;48.10;;;;;;;11.29;97.53;102684.53;10386955;28;20232;-83
2021/12/14 22:36:34;;;;;;;54.63;49.83;;;;;;;11.28;97.91;102688.16;10379584;28;20212;-83
2021/12/14 22:42:11;;;;;;;55.27;49.97;;;;;;;11.33;98.11;102685.28;10386030;28;20824;-83
2021/12/14 22:47:17;;;;;;;52.20;47.53;;;;;;;10.95;97.58;102622.81;10387446;28;20225;-83
2021/12/14 22:52:25;;;;;;;56.17;51.17;;;;;;;11.34;97.32;102692.38;10383598;28;20208;-83
2021/12/14 22:57:30;;;;;;;55.08;50.08;;;;;;;11.30;97.14;102686.28;10386590;28;20205;-83
2021/12/14 23:02:32;;;;;;;55.77;50.80;;;;;;;11.33;97.33;102682.59;10385464;28;20224;-83
2021/12/14 23:07:34;;;;;;;55.73;50.67;;;;;;;11.04;96.68;102649.16;10389887;28;20236;-83
2021/12/14 23:12:43;;;;;;;56.67;51.60;;;;;;;11.04;97.04;102666.06;10386115;28;20239;-84
2021/12/14 23:17:55;;;;;;;55.15;50.20;;;;;;;11.27;97.33;102686.41;10385662;28;20227;-83
2021/12/14 23:22:57;;;;;;;54.42;49.53;;;;;;;10.54;96.70;102572.91;10383974;28;20208;-83